createdAt,value
2023-03-16T00:09:30.871Z,66.04
2023-03-16T00:24:31.395Z,65.12
2023-03-16T00:39:32.000Z,56.62
2023-03-16T00:54:32.579Z,58.93
2023-03-16T01:09:33.471Z,62.53
2023-03-16T01:24:33.813Z,60.56
2023-03-16T01:39:34.457Z,59.95
2023-03-16T01:54:35.019Z,54.59
2023-03-16T02:09:36.174Z,45.31
2023-03-16T02:24:37.251Z,55.54
2023-03-16T02:39:37.851Z,62.96
2023-03-16T02:54:38.459Z,62.88
2023-03-16T03:09:39.153Z,69.68
2023-03-16T03:24:39.696Z,70.49
2023-03-16T03:39:40.325Z,67.77
2023-03-16T03:54:41.371Z,65.24
2023-03-16T04:09:41.636Z,57.11
2023-03-16T04:24:42.580Z,53.12
2023-03-16T04:39:42.758Z,59.99
2023-03-16T04:54:43.361Z,64.25
2023-03-16T05:09:44.414Z,58.54
2023-03-16T05:24:44.570Z,63.43
2023-03-16T05:39:45.609Z,53.28
2023-03-16T05:54:45.782Z,54.23
2023-03-16T06:09:46.489Z,43.39
2023-03-16T06:24:46.515Z,38.71
2023-03-16T06:39:47.140Z,32.29
2023-03-16T06:54:47.754Z,42.10
2023-03-16T07:09:48.453Z,99.24
2023-03-16T07:24:49.362Z,99.99
2023-03-16T07:39:49.362Z,99.99
2023-03-16T07:54:49.723Z,96.44
2023-03-16T08:09:50.938Z,86.90
2023-03-16T08:24:52.021Z,86.53
2023-03-16T08:39:52.621Z,74.74
2023-03-16T08:55:03.050Z,71.00
2023-03-16T09:09:58.770Z,68.13
2023-03-16T09:24:59.353Z,65.91
2023-03-16T09:40:06.588Z,61.96
2023-03-16T09:55:05.633Z,57.20
2023-03-16T10:10:06.194Z,57.17
2023-03-16T10:25:06.716Z,53.54
2023-03-16T10:40:07.362Z,52.27
2023-03-16T10:55:07.457Z,50.35
2023-03-16T11:10:07.651Z,51.99
2023-03-16T11:25:09.173Z,50.42
2023-03-16T11:40:09.241Z,48.58
2023-03-16T11:55:09.942Z,47.60
2023-03-16T12:10:10.524Z,44.59
2023-03-16T12:25:11.172Z,43.24
2023-03-16T12:40:12.295Z,43.44
2023-03-16T12:55:13.372Z,43.44
2023-03-16T13:10:14.022Z,41.90
2023-03-16T13:25:14.546Z,41.29
2023-03-16T13:40:15.174Z,40.39
2023-03-16T13:55:15.270Z,36.83
2023-03-16T14:10:15.951Z,37.04
2023-03-16T14:25:16.438Z,39.17
2023-03-16T14:40:17.020Z,37.63
2023-03-16T14:55:17.688Z,38.38
2023-03-16T15:10:18.265Z,37.95
2023-03-16T15:25:18.859Z,38.94
2023-03-16T15:40:19.533Z,39.20
2023-03-16T15:55:20.014Z,39.80
2023-03-16T16:10:21.669Z,41.00
2023-03-16T16:25:22.207Z,42.19
2023-03-16T16:40:22.842Z,39.36
2023-03-16T16:55:23.409Z,43.61
2023-03-16T17:10:24.012Z,45.48
2023-03-16T17:25:24.661Z,48.51
2023-03-16T17:40:25.206Z,50.41
2023-03-16T17:55:26.304Z,51.57
2023-03-16T18:10:28.206Z,54.30
2023-03-16T18:25:28.969Z,54.22
2023-03-16T18:40:30.162Z,55.15
2023-03-16T18:55:31.816Z,54.43
2023-03-16T19:10:33.002Z,53.81
2023-03-16T19:25:33.241Z,53.73
2023-03-16T19:40:33.489Z,53.91
2023-03-16T19:55:33.732Z,52.47
2023-03-16T20:10:34.451Z,54.09
2023-03-16T20:25:35.807Z,54.27
2023-03-16T20:40:35.989Z,54.79
2023-03-16T20:55:36.318Z,56.10
2023-03-16T21:10:36.838Z,58.48
2023-03-16T21:25:36.880Z,59.95
2023-03-16T21:40:37.589Z,61.42
2023-03-16T21:55:39.142Z,62.55
2023-03-16T22:10:39.266Z,63.72
2023-03-16T22:25:39.931Z,66.23
2023-03-16T22:40:40.839Z,67.47
2023-03-16T22:55:41.579Z,68.64
2023-03-16T23:10:42.809Z,69.40
2023-03-16T23:25:43.003Z,70.43
2023-03-16T23:40:44.580Z,71.39
2023-03-16T23:55:45.460Z,72.22
